createdAt,value
2023-02-23T00:02:06.580Z,6.03
2023-02-23T00:07:08.391Z,6.53
2023-02-23T00:12:10.242Z,6.43
2023-02-23T00:17:14.858Z,5.97
2023-02-23T00:22:16.873Z,5.80
2023-02-23T00:27:20.930Z,5.90
2023-02-23T00:32:23.949Z,5.23
2023-02-23T00:37:25.734Z,5.87
2023-02-23T00:42:32.127Z,5.17
2023-02-23T00:47:33.821Z,5.73
2023-02-23T00:52:35.529Z,5.30
2023-02-23T00:57:37.312Z,5.20
2023-02-23T01:02:39.225Z,5.27
2023-02-23T01:07:40.980Z,5.10
2023-02-23T01:12:42.645Z,4.60
2023-02-23T01:17:44.399Z,4.40
2023-02-23T01:22:51.644Z,4.70
2023-02-23T01:27:54.400Z,4.83
2023-02-23T01:32:56.250Z,4.80
2023-02-23T01:37:57.968Z,4.77
2023-02-23T01:43:14.502Z,5.30
2023-02-23T01:48:21.092Z,4.83
2023-02-23T01:53:25.076Z,6.20
2023-02-23T01:58:28.474Z,6.63
2023-02-23T02:03:43.763Z,6.43
2023-02-23T02:08:54.661Z,6.73
2023-02-23T02:14:12.867Z,7.63
2023-02-23T02:19:24.831Z,7.57
2023-02-23T02:25:12.587Z,8.00
2023-02-23T02:30:46.563Z,8.60
2023-02-23T02:36:07.072Z,8.60
2023-02-23T02:41:18.903Z,9.43
2023-02-23T02:46:27.069Z,8.80
2023-02-23T02:51:49.261Z,9.27
2023-02-23T02:56:57.500Z,9.17
2023-02-23T03:02:17.969Z,9.33
2023-02-23T03:07:49.535Z,9.00
2023-02-23T03:13:37.329Z,9.83
2023-02-23T03:19:20.045Z,8.87
2023-02-23T03:24:45.556Z,9.73
2023-02-23T03:30:18.267Z,8.73
2023-02-23T03:36:13.209Z,11.03
2023-02-23T03:41:36.712Z,10.90
2023-02-23T03:46:59.506Z,10.70
2023-02-23T03:52:29.113Z,11.40
2023-02-23T03:57:53.606Z,12.13
2023-02-23T04:03:16.564Z,13.10
2023-02-23T04:08:38.404Z,12.90
2023-02-23T04:13:43.192Z,12.77
2023-02-23T04:18:45.158Z,12.77
2023-02-23T04:23:47.213Z,14.67
2023-02-23T04:28:48.881Z,12.97
2023-02-23T04:33:51.233Z,13.63
2023-02-23T04:38:52.897Z,13.27
2023-02-23T04:43:54.577Z,14.97
2023-02-23T04:48:56.290Z,13.40
2023-02-23T04:53:58.600Z,13.83
2023-02-23T04:59:00.362Z,14.07
2023-02-23T05:04:02.057Z,13.83
2023-02-23T05:09:05.119Z,13.87
2023-02-23T05:14:06.885Z,14.27
2023-02-23T05:19:08.611Z,13.27
2023-02-23T05:24:10.835Z,13.80
2023-02-23T05:29:12.842Z,13.90
2023-02-23T05:34:16.814Z,13.47
2023-02-23T05:39:18.512Z,13.63
2023-02-23T05:44:20.183Z,13.93
2023-02-23T05:49:21.858Z,14.83
2023-02-23T05:54:23.527Z,15.37
2023-02-23T05:59:25.308Z,14.37
2023-02-23T06:04:27.054Z,18.13
2023-02-23T06:09:28.827Z,18.57
2023-02-23T06:14:30.514Z,16.43
2023-02-23T06:19:32.899Z,16.10
2023-02-23T06:24:34.606Z,13.70
2023-02-23T06:29:38.268Z,19.07
2023-02-23T06:34:40.511Z,30.77
2023-02-23T06:39:42.246Z,25.73
2023-02-23T06:44:43.921Z,16.87
2023-02-23T06:49:47.778Z,19.57
2023-02-23T06:54:50.143Z,18.57
2023-02-23T06:59:51.898Z,17.77
2023-02-23T07:04:53.605Z,14.83
2023-02-23T07:09:55.325Z,14.53
2023-02-23T07:14:57.164Z,15.93
2023-02-23T07:19:58.841Z,19.27
2023-02-23T07:25:00.541Z,21.47
2023-02-23T07:30:03.106Z,19.20
2023-02-23T07:35:06.435Z,20.27
2023-02-23T07:40:09.236Z,18.93
2023-02-23T07:45:11.339Z,18.87
2023-02-23T07:50:13.993Z,16.97
2023-02-23T07:55:15.793Z,18.57
2023-02-23T08:00:17.926Z,17.40
2023-02-23T08:05:20.222Z,17.77
2023-02-23T08:10:22.507Z,18.93
2023-02-23T08:15:25.079Z,16.77
2023-02-23T08:20:27.737Z,16.10
2023-02-23T08:25:29.462Z,15.73
2023-02-23T08:30:31.838Z,14.50
2023-02-23T08:35:33.627Z,15.63
2023-02-23T08:40:35.316Z,16.73
2023-02-23T08:45:38.693Z,15.43
2023-02-23T08:50:40.382Z,14.57
2023-02-23T08:55:42.218Z,12.73
2023-02-23T09:00:44.913Z,13.50
2023-02-23T09:05:47.107Z,12.27
2023-02-23T09:10:48.803Z,12.03
2023-02-23T09:15:50.556Z,12.27
2023-02-23T09:20:52.294Z,11.83
2023-02-23T09:25:54.152Z,11.00
2023-02-23T09:30:56.163Z,10.63
2023-02-23T09:35:58.004Z,10.00
2023-02-23T09:40:59.774Z,9.60
2023-02-23T09:46:36.154Z,8.97
2023-02-23T09:51:44.016Z,8.60
2023-02-23T09:56:48.562Z,7.70
2023-02-23T10:01:56.703Z,7.77
2023-02-23T10:07:14.639Z,8.50
2023-02-23T10:12:30.267Z,8.73
2023-02-23T10:18:06.965Z,9.13
2023-02-23T10:23:14.608Z,9.40
2023-02-23T10:28:20.201Z,8.43
2023-02-23T10:33:33.339Z,7.97
2023-02-23T10:38:35.042Z,7.37
2023-02-23T10:43:37.027Z,7.57
2023-02-23T10:48:43.121Z,7.10
2023-02-23T10:53:44.913Z,7.83
2023-02-23T10:58:55.683Z,7.50
2023-02-23T11:04:06.008Z,8.17
2023-02-23T11:09:17.299Z,7.67
2023-02-23T11:14:24.270Z,7.30
2023-02-23T11:19:37.437Z,5.93
2023-02-23T11:24:41.558Z,7.40
2023-02-23T11:29:47.367Z,7.30
2023-02-23T11:35:21.104Z,7.93
2023-02-23T11:40:27.494Z,8.07
2023-02-23T11:45:33.616Z,7.83
2023-02-23T11:50:36.524Z,8.17
2023-02-23T11:55:38.776Z,7.57
2023-02-23T12:00:40.747Z,7.97
2023-02-23T12:05:52.778Z,7.60
2023-02-23T12:10:58.695Z,6.97
2023-02-23T12:16:19.524Z,6.87
2023-02-23T12:21:52.112Z,8.00
2023-02-23T12:27:04.193Z,7.10
2023-02-23T12:32:37.254Z,7.47
2023-02-23T12:37:49.353Z,6.63
2023-02-23T12:42:54.015Z,6.77
2023-02-23T12:48:27.552Z,5.90
2023-02-23T12:53:41.512Z,6.40
2023-02-23T12:59:32.933Z,7.30
2023-02-23T13:04:53.574Z,6.93
2023-02-23T13:10:03.530Z,6.53
2023-02-23T13:15:39.612Z,7.57
2023-02-23T13:20:53.093Z,7.83
2023-02-23T13:26:16.548Z,5.90
2023-02-23T13:31:33.465Z,6.50
2023-02-23T13:36:36.802Z,5.93
2023-02-23T13:41:46.493Z,6.00
2023-02-23T13:47:12.856Z,6.47
2023-02-23T13:52:39.766Z,5.80
2023-02-23T13:57:43.921Z,6.30
2023-02-23T14:02:46.407Z,6.70
2023-02-23T14:07:52.907Z,6.03
2023-02-23T14:13:13.094Z,5.30
2023-02-23T14:18:17.859Z,5.73
2023-02-23T14:23:22.565Z,6.87
2023-02-23T14:28:36.513Z,6.00
2023-02-23T14:33:48.567Z,6.10
2023-02-23T14:39:04.187Z,5.43
2023-02-23T14:44:31.223Z,5.17
2023-02-23T14:49:39.003Z,6.17
2023-02-23T14:54:41.273Z,5.83
2023-02-23T14:59:43.398Z,5.30
2023-02-23T15:04:46.224Z,5.17
2023-02-23T15:09:48.164Z,5.90
2023-02-23T15:14:50.325Z,4.57
2023-02-23T15:20:14.343Z,4.87
2023-02-23T15:25:24.123Z,4.73
2023-02-23T15:30:31.697Z,5.00
2023-02-23T15:35:45.528Z,7.60
2023-02-23T15:40:48.201Z,8.87
2023-02-23T15:45:52.341Z,9.93
2023-02-23T15:51:00.187Z,9.10
2023-02-23T15:56:29.144Z,9.27
2023-02-23T16:01:32.379Z,8.73
2023-02-23T16:06:36.815Z,8.87
2023-02-23T16:11:39.516Z,7.90
2023-02-23T16:16:42.805Z,7.50
2023-02-23T16:21:53.860Z,8.10
2023-02-23T16:27:02.166Z,7.77
2023-02-23T16:32:16.272Z,8.43
2023-02-23T16:37:25.368Z,8.63
2023-02-23T16:42:34.826Z,9.40
2023-02-23T16:47:42.818Z,8.67
2023-02-23T16:52:51.836Z,8.30
2023-02-23T16:58:04.172Z,7.40
2023-02-23T17:03:06.699Z,8.63
2023-02-23T17:08:10.558Z,8.00
2023-02-23T17:13:24.275Z,10.33
2023-02-23T17:18:28.369Z,9.60
2023-02-23T17:23:52.099Z,11.13
2023-02-23T17:28:54.049Z,12.20
2023-02-23T17:33:55.798Z,12.20
2023-02-23T17:39:00.932Z,12.57
2023-02-23T17:44:05.717Z,12.90
2023-02-23T17:49:07.568Z,13.50
2023-02-23T17:54:09.254Z,11.30
2023-02-23T17:59:11.044Z,9.27
2023-02-23T18:04:12.779Z,10.47
2023-02-23T18:09:14.535Z,11.23
2023-02-23T18:14:17.258Z,12.33
2023-02-23T18:19:20.058Z,11.80
2023-02-23T18:24:27.124Z,11.80
2023-02-23T18:29:32.009Z,13.23
2023-02-23T18:34:34.253Z,12.70
2023-02-23T18:39:35.955Z,15.30
2023-02-23T18:44:37.616Z,13.03
2023-02-23T18:49:39.395Z,12.83
2023-02-23T18:54:41.225Z,13.17
2023-02-23T18:59:43.059Z,15.97
2023-02-23T19:04:44.806Z,13.00
2023-02-23T19:09:47.169Z,13.93
2023-02-23T19:14:51.082Z,16.10
2023-02-23T19:19:56.206Z,16.53
2023-02-23T19:24:57.984Z,23.37
2023-02-23T19:29:59.838Z,34.77
2023-02-23T19:35:01.549Z,17.63
2023-02-23T19:40:03.953Z,18.00
2023-02-23T19:45:06.219Z,26.50
2023-02-23T19:50:10.291Z,28.47
2023-02-23T19:55:12.759Z,29.80
2023-02-23T20:00:14.853Z,22.23
2023-02-23T20:05:16.779Z,21.53
2023-02-23T20:10:25.530Z,19.63
2023-02-23T20:15:27.231Z,17.03
2023-02-23T20:20:29.174Z,22.10
2023-02-23T20:25:31.123Z,21.97
2023-02-23T20:30:32.897Z,16.73
2023-02-23T20:35:34.723Z,14.40
2023-02-23T20:40:36.732Z,18.77
2023-02-23T20:45:39.918Z,25.23
2023-02-23T20:50:42.457Z,21.27
2023-02-23T20:55:44.340Z,19.40
2023-02-23T21:00:46.028Z,20.23
2023-02-23T21:05:51.579Z,15.70
2023-02-23T21:10:53.263Z,13.90
2023-02-23T21:16:01.068Z,12.97
2023-02-23T21:21:09.907Z,12.20
2023-02-23T21:26:16.019Z,14.50
2023-02-23T21:31:18.002Z,13.23
2023-02-23T21:36:20.124Z,13.53
2023-02-23T21:41:22.404Z,13.13
2023-02-23T21:46:24.903Z,11.97
2023-02-23T21:51:26.652Z,11.20
2023-02-23T21:56:29.539Z,11.40
2023-02-23T22:01:36.806Z,12.20
2023-02-23T22:06:41.627Z,12.67
2023-02-23T22:11:46.606Z,12.70
2023-02-23T22:16:49.729Z,11.70
2023-02-23T22:21:51.470Z,12.10
2023-02-23T22:26:56.214Z,12.27
2023-02-23T22:31:59.155Z,10.93
2023-02-23T22:37:00.955Z,11.97
2023-02-23T22:42:09.230Z,14.03
2023-02-23T22:47:11.060Z,12.60
2023-02-23T22:52:12.753Z,10.90
2023-02-23T22:57:14.997Z,10.83
2023-02-23T23:02:16.661Z,11.07
2023-02-23T23:07:20.087Z,11.30
2023-02-23T23:12:21.940Z,12.17
2023-02-23T23:17:23.677Z,12.23
2023-02-23T23:22:26.446Z,10.40
2023-02-23T23:27:28.121Z,11.20
2023-02-23T23:32:29.966Z,10.60
2023-02-23T23:37:31.724Z,10.27
2023-02-23T23:42:34.844Z,11.00
2023-02-23T23:47:36.588Z,11.00
2023-02-23T23:52:39.863Z,12.10
2023-02-23T23:57:42.303Z,10.67
